createdAt,value
2022-12-08T00:00:37.906Z,3.97
2022-12-08T00:04:58.792Z,4.55
2022-12-08T00:09:39.101Z,3.97
2022-12-08T00:13:45.024Z,4.82
2022-12-08T00:17:46.770Z,4.38
2022-12-08T00:21:48.764Z,5.68
2022-12-08T00:25:51.627Z,3.35
2022-12-08T00:29:53.360Z,4.20
2022-12-08T00:33:55.175Z,5.45
2022-12-08T00:38:00.796Z,3.55
2022-12-08T00:42:14.935Z,3.45
2022-12-08T00:46:17.089Z,3.30
2022-12-08T00:50:19.260Z,4.53
2022-12-08T00:54:23.032Z,3.33
2022-12-08T00:58:24.904Z,3.33
2022-12-08T01:02:26.686Z,4.15
2022-12-08T01:06:28.420Z,3.17
2022-12-08T01:10:30.229Z,3.30
2022-12-08T01:14:31.945Z,2.53
2022-12-08T01:18:35.063Z,2.47
2022-12-08T01:22:36.873Z,3.20
2022-12-08T01:26:38.687Z,2.75
2022-12-08T01:30:41.075Z,2.45
2022-12-08T01:34:42.970Z,2.65
2022-12-08T01:38:44.736Z,2.55
2022-12-08T01:43:06.461Z,2.72
2022-12-08T01:47:08.880Z,2.80
2022-12-08T01:51:10.654Z,2.90
2022-12-08T01:55:15.474Z,2.70
2022-12-08T01:59:17.980Z,2.78
2022-12-08T02:03:40.812Z,4.25
2022-12-08T02:07:43.910Z,3.40
2022-12-08T02:11:46.066Z,3.13
2022-12-08T02:16:21.647Z,3.10
2022-12-08T02:20:36.871Z,4.00
2022-12-08T02:24:59.750Z,3.28
2022-12-08T02:29:30.812Z,3.67
2022-12-08T02:34:09.635Z,4.45
2022-12-08T02:38:35.833Z,5.45
2022-12-08T02:42:39.557Z,4.25
2022-12-08T02:46:49.491Z,4.20
2022-12-08T02:50:51.223Z,4.47
2022-12-08T02:55:00.419Z,4.05
2022-12-08T02:59:25.829Z,3.70
2022-12-08T03:03:52.303Z,3.75
2022-12-08T03:08:04.094Z,3.75
2022-12-08T03:12:24.153Z,3.85
2022-12-08T03:16:28.131Z,3.50
2022-12-08T03:20:32.932Z,3.63
2022-12-08T03:24:37.844Z,4.70
2022-12-08T03:28:39.968Z,5.30
2022-12-08T03:32:54.902Z,5.28
2022-12-08T03:36:57.365Z,4.35
2022-12-08T03:41:17.528Z,4.32
2022-12-08T03:45:19.275Z,3.58
2022-12-08T03:49:21.098Z,4.68
2022-12-08T03:53:22.946Z,5.80
2022-12-08T03:57:24.667Z,5.15
2022-12-08T04:01:27.698Z,3.60
2022-12-08T04:05:29.530Z,3.47
2022-12-08T04:09:31.267Z,2.92
2022-12-08T04:13:37.867Z,3.10
2022-12-08T04:17:39.621Z,3.22
2022-12-08T04:21:41.379Z,3.13
2022-12-08T04:25:43.181Z,3.60
2022-12-08T04:29:44.893Z,4.60
2022-12-08T04:33:46.691Z,3.38
2022-12-08T04:37:48.531Z,3.28
2022-12-08T04:41:50.292Z,2.75
2022-12-08T04:45:52.097Z,3.20
2022-12-08T04:49:53.870Z,3.50
2022-12-08T04:53:55.582Z,2.97
2022-12-08T04:57:57.329Z,3.55
2022-12-08T05:01:59.150Z,3.05
2022-12-08T05:06:01.323Z,2.67
2022-12-08T05:10:04.373Z,2.65
2022-12-08T05:14:06.307Z,2.97
2022-12-08T05:18:08.190Z,3.20
2022-12-08T05:22:10.454Z,3.97
2022-12-08T05:26:12.191Z,4.13
2022-12-08T05:30:14.146Z,5.55
2022-12-08T05:34:16.050Z,4.07
2022-12-08T05:38:17.777Z,4.43
2022-12-08T05:42:24.360Z,5.28
2022-12-08T05:50:28.443Z,4.63
2022-12-08T05:54:32.110Z,5.55
2022-12-08T05:58:33.881Z,6.68
2022-12-08T06:02:35.939Z,5.03
2022-12-08T06:06:38.564Z,3.38
2022-12-08T06:10:45.255Z,3.55
2022-12-08T06:14:47.057Z,4.43
2022-12-08T06:18:49.294Z,4.32
2022-12-08T06:22:51.000Z,3.95
2022-12-08T06:26:52.706Z,3.40
2022-12-08T06:30:54.440Z,4.90
2022-12-08T06:34:56.205Z,5.07
2022-12-08T06:38:58.356Z,5.50
2022-12-08T06:43:01.092Z,5.43
2022-12-08T06:47:02.822Z,3.90
2022-12-08T06:51:07.946Z,4.47
2022-12-08T06:55:10.422Z,7.53
2022-12-08T06:59:12.252Z,5.32
2022-12-08T07:03:14.748Z,6.80
2022-12-08T07:07:16.504Z,6.38
2022-12-08T07:11:21.856Z,4.80
2022-12-08T07:15:23.982Z,7.30
2022-12-08T07:19:25.784Z,6.15
2022-12-08T07:23:27.526Z,6.97
2022-12-08T07:27:29.592Z,5.63
2022-12-08T07:31:31.577Z,5.10
2022-12-08T07:35:35.062Z,4.63
2022-12-08T07:39:37.187Z,4.63
2022-12-08T07:43:39.218Z,5.10
2022-12-08T07:47:41.863Z,4.60
2022-12-08T07:51:43.992Z,3.40
2022-12-08T07:55:45.758Z,5.00
2022-12-08T07:59:47.458Z,4.60
2022-12-08T08:03:49.427Z,6.20
2022-12-08T08:07:51.249Z,5.25
2022-12-08T08:12:22.415Z,5.32
2022-12-08T08:16:14.842Z,4.60
2022-12-08T08:20:17.123Z,4.55
2022-12-08T08:24:19.044Z,4.45
2022-12-08T08:28:20.974Z,5.13
2022-12-08T08:32:22.728Z,5.93
2022-12-08T08:36:24.484Z,5.68
2022-12-08T08:40:26.211Z,5.40
2022-12-08T08:44:30.633Z,4.82
2022-12-08T08:48:32.761Z,6.68
2022-12-08T08:52:34.592Z,5.13
2022-12-08T08:56:36.536Z,5.43
2022-12-08T09:00:38.367Z,4.00
2022-12-08T09:04:40.212Z,5.00
2022-12-08T09:08:42.854Z,5.32
2022-12-08T09:12:44.656Z,4.88
2022-12-08T09:16:46.423Z,4.75
2022-12-08T09:20:48.203Z,4.63
2022-12-08T09:24:49.961Z,4.30
2022-12-08T09:28:52.544Z,6.20
2022-12-08T09:32:54.343Z,6.60
2022-12-08T09:36:56.123Z,4.72
2022-12-08T09:40:58.947Z,5.10
2022-12-08T09:45:12.835Z,5.07
2022-12-08T09:49:18.453Z,4.95
2022-12-08T09:53:32.085Z,5.97
2022-12-08T09:57:37.267Z,7.30
2022-12-08T10:01:41.837Z,8.02
2022-12-08T10:05:54.402Z,6.80
2022-12-08T10:10:06.321Z,5.53
2022-12-08T10:14:26.344Z,6.80
2022-12-08T10:18:33.344Z,5.95
2022-12-08T10:26:40.696Z,7.30
2022-12-08T10:30:42.472Z,5.18
2022-12-08T10:35:05.743Z,4.63
2022-12-08T10:39:31.480Z,5.00
2022-12-08T10:43:34.122Z,5.18
2022-12-08T10:47:40.097Z,4.10
2022-12-08T10:51:44.295Z,5.30
2022-12-08T10:55:53.278Z,5.55
2022-12-08T10:59:56.028Z,5.03
2022-12-08T11:04:01.232Z,5.10
2022-12-08T11:08:05.145Z,4.40
2022-12-08T11:12:14.724Z,4.60
2022-12-08T11:16:18.253Z,4.68
2022-12-08T11:20:23.001Z,5.43
2022-12-08T11:24:29.266Z,5.43
2022-12-08T11:28:33.047Z,4.20
2022-12-08T11:32:36.108Z,7.07
2022-12-08T11:36:38.352Z,4.80
2022-12-08T11:40:42.392Z,5.40
2022-12-08T11:44:57.324Z,5.10
2022-12-08T11:49:06.279Z,3.90
2022-12-08T11:53:23.949Z,4.00
2022-12-08T11:57:28.096Z,4.50
2022-12-08T12:01:29.880Z,4.63
2022-12-08T12:06:09.101Z,5.93
2022-12-08T12:10:32.352Z,6.20
2022-12-08T12:15:14.578Z,6.38
2022-12-08T12:19:20.007Z,4.53
2022-12-08T12:23:37.281Z,5.10
2022-12-08T12:27:40.510Z,4.10
2022-12-08T12:31:47.322Z,6.25
2022-12-08T12:35:49.685Z,5.32
2022-12-08T12:40:05.549Z,5.05
2022-12-08T12:44:12.490Z,6.65
2022-12-08T12:48:22.895Z,4.50
2022-12-08T12:52:33.619Z,5.40
2022-12-08T12:57:10.461Z,5.93
2022-12-08T13:01:12.708Z,5.65
2022-12-08T13:05:15.725Z,7.15
2022-12-08T13:09:42.596Z,4.90
2022-12-08T13:13:56.614Z,5.13
2022-12-08T13:17:58.458Z,5.22
2022-12-08T13:22:00.950Z,5.82
2022-12-08T13:26:10.823Z,5.07
2022-12-08T13:30:42.615Z,4.93
2022-12-08T13:34:51.804Z,4.20
2022-12-08T13:38:58.064Z,4.10
2022-12-08T13:43:13.238Z,4.40
2022-12-08T13:47:37.104Z,3.90
2022-12-08T13:53:35.117Z,4.00
2022-12-08T14:00:33.857Z,4.43
2022-12-08T14:05:09.162Z,4.32
2022-12-08T14:09:06.921Z,4.57
2022-12-08T14:13:13.306Z,4.40
2022-12-08T14:17:20.970Z,4.30
2022-12-08T14:21:22.706Z,5.05
2022-12-08T14:25:26.887Z,4.25
2022-12-08T14:29:58.278Z,4.55
2022-12-08T14:34:00.053Z,4.30
2022-12-08T14:38:05.218Z,3.33
2022-12-08T14:42:07.701Z,3.22
2022-12-08T14:46:23.074Z,2.92
2022-12-08T14:50:42.069Z,2.90
2022-12-08T14:54:45.395Z,2.78
2022-12-08T14:58:49.987Z,3.67
2022-12-08T15:02:51.821Z,4.63
2022-12-08T15:06:56.842Z,4.18
2022-12-08T15:11:23.364Z,4.13
2022-12-08T15:15:25.571Z,3.70
2022-12-08T15:19:32.971Z,3.40
2022-12-08T15:23:45.001Z,3.65
2022-12-08T15:27:50.622Z,4.53
2022-12-08T15:31:56.019Z,5.65
2022-12-08T15:35:57.914Z,7.05
2022-12-08T15:39:59.760Z,5.75
2022-12-08T15:44:01.546Z,5.13
2022-12-08T15:48:03.438Z,4.63
2022-12-08T15:52:11.872Z,3.35
2022-12-08T15:56:29.354Z,3.55
2022-12-08T16:09:49.671Z,4.13
2022-12-08T16:14:15.103Z,5.22
2022-12-08T16:18:24.699Z,4.10
2022-12-08T16:31:21.397Z,5.38
2022-12-08T16:35:24.695Z,4.15
2022-12-08T16:39:26.546Z,5.13
2022-12-08T16:43:28.273Z,4.30
2022-12-08T16:47:29.999Z,4.35
2022-12-08T16:51:31.758Z,5.80
2022-12-08T16:55:34.591Z,5.32
2022-12-08T16:59:38.256Z,9.30
2022-12-08T17:03:51.619Z,8.98
2022-12-08T17:08:03.040Z,15.85
2022-12-08T17:12:04.976Z,22.70
2022-12-08T17:16:12.512Z,20.15
2022-12-08T17:20:17.452Z,13.02
2022-12-08T17:24:22.186Z,9.10
2022-12-08T17:28:51.549Z,7.30
2022-12-08T17:32:46.150Z,5.65
2022-12-08T17:36:47.914Z,3.63
2022-12-08T17:40:53.989Z,5.07
2022-12-08T17:44:58.761Z,6.40
2022-12-08T17:49:00.467Z,10.23
2022-12-08T17:53:02.187Z,8.80
2022-12-08T17:57:04.172Z,7.47
2022-12-08T18:01:10.051Z,8.02
2022-12-08T18:05:11.856Z,10.20
2022-12-08T18:09:14.040Z,13.48
2022-12-08T18:13:15.848Z,12.85
2022-12-08T18:17:17.896Z,14.07
2022-12-08T18:21:23.374Z,10.43
2022-12-08T18:25:25.682Z,10.73
2022-12-08T18:29:27.434Z,9.32
2022-12-08T18:33:29.282Z,7.20
2022-12-08T18:37:31.124Z,6.90
2022-12-08T18:41:32.876Z,6.10
2022-12-08T18:45:36.843Z,5.30
2022-12-08T18:49:38.569Z,5.75
2022-12-08T18:53:40.914Z,5.18
2022-12-08T18:57:43.301Z,5.40
2022-12-08T19:01:46.251Z,4.55
2022-12-08T19:05:48.023Z,3.85
2022-12-08T19:09:49.895Z,3.80
2022-12-08T19:13:52.734Z,3.08
2022-12-08T19:17:54.475Z,3.47
2022-12-08T19:21:56.821Z,3.55
2022-12-08T19:25:58.605Z,3.15
2022-12-08T19:30:00.529Z,3.40
2022-12-08T19:34:02.401Z,3.05
2022-12-08T19:38:04.273Z,2.95
2022-12-08T19:42:31.653Z,3.22
2022-12-08T19:46:37.411Z,3.30
2022-12-08T19:50:42.054Z,3.65
2022-12-08T19:54:43.947Z,3.28
2022-12-08T19:58:45.703Z,2.75
2022-12-08T20:02:47.844Z,3.47
2022-12-08T20:06:51.339Z,3.92
2022-12-08T20:10:56.030Z,3.60
2022-12-08T20:14:57.823Z,3.70
2022-12-08T20:18:59.688Z,3.15
2022-12-08T20:23:01.654Z,5.38
2022-12-08T20:27:03.543Z,8.60
2022-12-08T20:31:05.581Z,6.97
2022-12-08T20:35:08.020Z,5.68
2022-12-08T20:39:15.246Z,4.80
2022-12-08T20:43:17.050Z,5.93
2022-12-08T20:47:18.877Z,5.90
2022-12-08T20:51:20.848Z,5.35
2022-12-08T20:55:22.805Z,3.75
2022-12-08T20:59:26.374Z,5.28
2022-12-08T21:03:28.448Z,3.45
2022-12-08T21:07:30.533Z,3.90
2022-12-08T21:11:32.272Z,5.30
2022-12-08T21:15:34.505Z,4.38
2022-12-08T21:19:36.574Z,3.28
2022-12-08T21:23:39.338Z,4.63
2022-12-08T21:27:41.238Z,3.97
2022-12-08T21:31:43.210Z,4.03
2022-12-08T21:35:45.612Z,4.47
2022-12-08T21:39:47.498Z,6.78
2022-12-08T21:43:49.426Z,5.22
2022-12-08T21:47:51.595Z,4.30
2022-12-08T21:51:53.457Z,3.75
2022-12-08T21:55:55.224Z,3.97
2022-12-08T21:59:57.649Z,3.45
2022-12-08T22:03:59.463Z,3.47
2022-12-08T22:08:01.592Z,4.30
2022-12-08T22:12:03.593Z,3.90
2022-12-08T22:16:08.212Z,5.72
2022-12-08T22:20:15.013Z,4.32
2022-12-08T22:24:16.790Z,3.72
2022-12-08T22:28:18.583Z,4.45
2022-12-08T22:32:21.069Z,5.45
2022-12-08T22:36:24.832Z,4.20
2022-12-08T22:40:26.655Z,4.68
2022-12-08T22:44:28.795Z,4.60
2022-12-08T22:48:30.533Z,6.80
2022-12-08T22:52:32.667Z,5.65
2022-12-08T22:56:34.705Z,4.28
2022-12-08T23:00:36.743Z,3.88
2022-12-08T23:04:38.836Z,5.15
2022-12-08T23:08:40.814Z,4.82
2022-12-08T23:12:42.995Z,3.45
2022-12-08T23:16:45.225Z,4.00
2022-12-08T23:20:47.272Z,4.38
2022-12-08T23:24:49.079Z,5.32
2022-12-08T23:28:51.151Z,4.65
2022-12-08T23:32:56.380Z,5.07
2022-12-08T23:36:58.205Z,4.60
2022-12-08T23:41:02.079Z,4.28
2022-12-08T23:45:05.479Z,4.63
2022-12-08T23:49:07.590Z,4.05
2022-12-08T23:53:09.557Z,3.10
2022-12-08T23:57:11.342Z,3.60
